createdAt,value
2018-07-09T00:01:01.481Z,60.70
2018-07-09T00:03:29.861Z,61.50
2018-07-09T00:05:58.263Z,61.80
2018-07-09T00:08:26.829Z,61.60
2018-07-09T00:11:03.161Z,61.70
2018-07-09T00:13:32.237Z,62.00
2018-07-09T00:16:00.820Z,63.20
2018-07-09T00:18:29.292Z,62.90
2018-07-09T00:20:57.737Z,62.70
2018-07-09T00:23:26.155Z,63.00
2018-07-09T00:25:55.281Z,63.00
2018-07-09T00:28:24.986Z,63.10
2018-07-09T00:33:22.049Z,63.60
2018-07-09T00:35:50.513Z,63.80
2018-07-09T00:38:19.515Z,64.10
2018-07-09T00:40:47.989Z,64.40
2018-07-09T00:43:16.423Z,64.80
2018-07-09T00:45:44.965Z,64.90
2018-07-09T00:48:13.440Z,65.30
2018-07-09T00:50:41.930Z,65.60
2018-07-09T00:53:10.353Z,65.50
2018-07-09T00:55:39.537Z,66.20
2018-07-09T00:58:07.977Z,66.40
2018-07-09T01:00:36.433Z,66.20
2018-07-09T01:03:04.949Z,66.60
2018-07-09T01:05:33.400Z,67.10
2018-07-09T01:08:01.859Z,67.60
2018-07-09T01:10:30.254Z,67.70
2018-07-09T01:12:58.644Z,67.70
2018-07-09T01:15:27.125Z,68.30
2018-07-09T01:17:55.588Z,68.50
2018-07-09T01:20:24.123Z,69.10
2018-07-09T01:22:52.533Z,68.90
2018-07-09T01:25:20.912Z,69.00
2018-07-09T01:27:49.422Z,68.90
2018-07-09T01:30:17.846Z,68.90
2018-07-09T01:32:46.208Z,69.20
2018-07-09T01:35:14.814Z,69.50
2018-07-09T01:37:43.634Z,69.60
2018-07-09T01:40:12.101Z,70.00
2018-07-09T01:42:40.499Z,70.20
2018-07-09T01:45:08.964Z,70.70
2018-07-09T01:47:37.357Z,70.70
2018-07-09T01:50:05.805Z,70.90
2018-07-09T01:52:34.173Z,71.00
2018-07-09T01:55:02.566Z,70.70
2018-07-09T01:57:30.948Z,70.60
2018-07-09T01:59:59.377Z,70.60
2018-07-09T02:02:27.755Z,70.90
2018-07-09T02:07:24.236Z,71.10
2018-07-09T02:09:52.622Z,71.40
2018-07-09T02:12:21.150Z,71.40
2018-07-09T02:14:49.580Z,71.40
2018-07-09T02:17:18.069Z,71.60
2018-07-09T02:19:46.474Z,72.00
2018-07-09T02:22:14.918Z,72.60
2018-07-09T02:24:43.338Z,72.60
2018-07-09T02:27:11.742Z,73.10
2018-07-09T02:29:40.154Z,73.50
2018-07-09T02:32:08.561Z,73.40
2018-07-09T02:34:36.957Z,73.50
2018-07-09T02:37:05.400Z,74.10
2018-07-09T02:39:34.221Z,73.60
2018-07-09T02:42:02.707Z,73.90
2018-07-09T02:44:31.124Z,73.90
2018-07-09T02:46:59.541Z,74.30
2018-07-09T02:49:27.999Z,74.60
2018-07-09T02:51:56.501Z,74.30
2018-07-09T02:54:24.900Z,73.90
2018-07-09T02:56:53.311Z,73.70
2018-07-09T02:59:21.669Z,73.90
2018-07-09T03:01:50.564Z,74.20
2018-07-09T03:04:18.975Z,73.60
2018-07-09T03:06:47.407Z,73.50
2018-07-09T03:09:15.781Z,73.80
2018-07-09T03:11:44.190Z,73.90
2018-07-09T03:14:12.646Z,74.00
2018-07-09T03:16:41.081Z,74.10
2018-07-09T03:19:09.624Z,73.70
2018-07-09T03:21:38.533Z,73.80
2018-07-09T03:24:06.931Z,73.80
2018-07-09T03:26:35.369Z,74.40
2018-07-09T03:29:03.782Z,74.90
2018-07-09T03:31:32.161Z,74.60
2018-07-09T03:34:00.586Z,74.80
2018-07-09T03:36:29.027Z,75.10
2018-07-09T03:38:57.396Z,75.10
2018-07-09T03:41:25.843Z,74.80
2018-07-09T03:43:54.258Z,75.10
2018-07-09T03:46:22.678Z,75.10
2018-07-09T03:48:51.126Z,75.20
2018-07-09T03:51:19.553Z,75.30
2018-07-09T03:53:47.951Z,75.20
2018-07-09T03:56:16.358Z,74.90
2018-07-09T03:58:44.786Z,75.00
2018-07-09T04:01:13.188Z,75.40
2018-07-09T04:03:41.629Z,75.60
2018-07-09T04:06:10.045Z,75.60
2018-07-09T04:08:38.422Z,75.10
2018-07-09T04:11:06.833Z,75.90
2018-07-09T04:13:35.227Z,75.90
2018-07-09T04:16:04.251Z,76.00
2018-07-09T04:18:32.628Z,76.30
2018-07-09T04:21:01.045Z,76.40
2018-07-09T04:23:29.424Z,76.20
2018-07-09T04:25:57.829Z,76.10
2018-07-09T04:28:26.201Z,75.90
2018-07-09T04:30:54.618Z,76.20
2018-07-09T04:33:23.077Z,76.70
2018-07-09T04:35:51.515Z,76.20
2018-07-09T04:38:19.918Z,76.60
2018-07-09T04:40:48.313Z,76.30
2018-07-09T04:43:16.858Z,76.40
2018-07-09T04:45:45.261Z,76.50
2018-07-09T04:48:13.659Z,76.10
2018-07-09T04:50:42.184Z,75.90
2018-07-09T04:53:10.597Z,76.10
2018-07-09T04:58:07.112Z,75.60
2018-07-09T05:00:35.542Z,75.80
2018-07-09T05:03:04.049Z,75.40
2018-07-09T05:05:32.611Z,75.70
2018-07-09T05:08:01.025Z,75.20
2018-07-09T05:10:29.433Z,75.40
2018-07-09T05:12:58.103Z,75.40
2018-07-09T05:15:26.487Z,74.30
2018-07-09T05:17:54.902Z,74.20
2018-07-09T05:20:23.343Z,74.10
2018-07-09T05:22:51.752Z,74.00
2018-07-09T05:25:20.121Z,74.20
2018-07-09T05:27:48.497Z,73.80
2018-07-09T05:30:16.992Z,74.70
2018-07-09T05:32:45.423Z,73.70
2018-07-09T05:35:13.829Z,72.90
2018-07-09T05:37:42.305Z,73.40
2018-07-09T05:40:10.743Z,73.80
2018-07-09T05:45:07.615Z,73.80
2018-07-09T05:47:36.177Z,73.10
2018-07-09T05:50:04.639Z,72.50
2018-07-09T05:52:33.014Z,71.60
2018-07-09T05:55:01.514Z,71.50
2018-07-09T05:57:29.997Z,71.90
2018-07-09T05:59:58.397Z,71.70
2018-07-09T06:02:27.474Z,71.50
2018-07-09T06:04:55.938Z,71.50
2018-07-09T06:07:24.389Z,71.00
2018-07-09T06:09:52.899Z,70.90
2018-07-09T06:12:21.340Z,71.40
2018-07-09T06:14:50.559Z,71.50
2018-07-09T06:17:18.920Z,71.60
2018-07-09T06:19:47.392Z,71.60
2018-07-09T06:22:15.857Z,71.50
2018-07-09T06:24:44.353Z,71.60
2018-07-09T06:27:12.738Z,70.90
2018-07-09T06:29:41.143Z,71.10
2018-07-09T06:32:09.601Z,70.90
2018-07-09T06:34:37.955Z,69.90
2018-07-09T06:37:06.446Z,69.00
2018-07-09T06:39:34.873Z,68.90
2018-07-09T06:42:03.352Z,68.80
2018-07-09T06:44:31.770Z,68.80
2018-07-09T06:47:00.198Z,68.10
2018-07-09T06:49:28.751Z,68.80
2018-07-09T06:51:57.149Z,68.10
2018-07-09T06:54:25.659Z,67.40
2018-07-09T06:56:54.295Z,67.20
2018-07-09T06:59:22.927Z,67.70
2018-07-09T07:01:51.422Z,66.50
2018-07-09T07:04:19.827Z,67.30
2018-07-09T07:06:48.590Z,66.80
2018-07-09T07:09:17.935Z,66.00
2018-07-09T07:11:46.358Z,65.20
2018-07-09T07:14:14.908Z,64.90
2018-07-09T07:16:43.395Z,63.80
2018-07-09T07:19:11.868Z,63.30
2018-07-09T07:21:40.314Z,62.70
2018-07-09T07:24:08.786Z,62.90
2018-07-09T07:26:37.270Z,61.10
2018-07-09T07:29:05.735Z,59.60
2018-07-09T07:31:34.690Z,61.00
2018-07-09T07:34:03.066Z,59.60
2018-07-09T07:36:31.575Z,59.30
2018-07-09T07:38:59.928Z,58.40
2018-07-09T07:41:28.340Z,58.10
2018-07-09T07:43:56.829Z,56.20
2018-07-09T07:46:25.270Z,55.20
2018-07-09T07:48:53.751Z,54.30
2018-07-09T07:51:22.195Z,54.30
2018-07-09T07:53:50.594Z,53.30
2018-07-09T07:56:19.056Z,52.80
2018-07-09T08:01:16.329Z,53.40
2018-07-09T08:03:44.786Z,52.80
2018-07-09T08:06:13.285Z,51.50
2018-07-09T08:08:41.797Z,51.70
2018-07-09T08:11:11.325Z,51.00
2018-07-09T08:13:39.370Z,50.90
2018-07-09T08:16:07.826Z,48.10
2018-07-09T08:18:36.275Z,48.60
2018-07-09T08:21:04.897Z,48.40
2018-07-09T08:23:33.431Z,48.10
2018-07-09T08:26:01.884Z,48.20
2018-07-09T08:28:30.421Z,49.00
2018-07-09T08:30:59.057Z,47.20
2018-07-09T08:33:27.373Z,47.20
2018-07-09T08:35:55.805Z,46.20
2018-07-09T08:38:24.345Z,46.10
2018-07-09T08:40:52.798Z,46.70
2018-07-09T08:43:21.233Z,44.80
2018-07-09T08:45:49.669Z,45.10
2018-07-09T08:48:18.043Z,44.50
2018-07-09T08:50:46.554Z,44.10
2018-07-09T08:53:14.996Z,42.50
2018-07-09T08:55:43.457Z,44.70
2018-07-09T08:58:11.837Z,45.30
2018-07-09T09:00:40.329Z,43.80
2018-07-09T09:03:08.769Z,45.20
2018-07-09T09:05:37.228Z,45.20
2018-07-09T09:08:05.730Z,45.60
2018-07-09T09:10:34.165Z,44.30
2018-07-09T09:13:02.570Z,43.90
2018-07-09T09:15:31.020Z,42.80
2018-07-09T09:17:59.481Z,43.20
2018-07-09T09:20:27.889Z,43.20
2018-07-09T09:22:56.337Z,43.50
2018-07-09T09:27:59.590Z,43.10
2018-07-09T09:30:27.974Z,43.00
2018-07-09T09:32:56.436Z,43.80
2018-07-09T09:35:24.856Z,43.70
2018-07-09T09:37:53.289Z,43.20
2018-07-09T09:40:21.715Z,45.00
2018-07-09T09:42:50.150Z,43.20
2018-07-09T09:45:18.618Z,42.10
2018-07-09T09:47:47.033Z,42.60
2018-07-09T09:50:15.504Z,41.90
2018-07-09T09:52:43.930Z,40.60
2018-07-09T09:55:12.330Z,39.30
2018-07-09T09:57:40.754Z,40.30
2018-07-09T10:00:09.241Z,39.50
2018-07-09T10:02:37.704Z,39.30
2018-07-09T10:05:06.214Z,39.90
2018-07-09T10:07:34.616Z,41.30
2018-07-09T10:10:03.502Z,40.80
2018-07-09T10:12:31.974Z,41.90
2018-07-09T10:15:00.401Z,43.30
2018-07-09T10:17:28.801Z,44.70
2018-07-09T10:19:57.270Z,43.00
2018-07-09T10:22:25.691Z,43.80
2018-07-09T10:24:54.090Z,44.80
2018-07-09T10:27:22.554Z,43.90
2018-07-09T10:29:51.662Z,41.50
2018-07-09T10:32:20.067Z,41.20
2018-07-09T10:34:48.536Z,39.70
2018-07-09T10:37:16.955Z,38.60
2018-07-09T10:39:45.362Z,40.20
2018-07-09T10:42:13.752Z,42.00
2018-07-09T10:44:42.137Z,42.40
2018-07-09T10:47:10.552Z,41.90
2018-07-09T10:49:39.092Z,42.20
2018-07-09T10:52:07.620Z,42.10
2018-07-09T10:54:36.059Z,42.30
2018-07-09T10:57:04.590Z,41.80
2018-07-09T10:59:33.065Z,42.50
2018-07-09T11:02:01.522Z,42.90
2018-07-09T11:04:30.571Z,41.60
2018-07-09T11:06:59.002Z,40.50
2018-07-09T11:09:27.427Z,41.00
2018-07-09T11:11:55.844Z,42.00
2018-07-09T11:14:24.229Z,41.80
2018-07-09T11:16:52.639Z,41.40
2018-07-09T11:19:21.368Z,41.50
2018-07-09T11:21:49.739Z,42.90
2018-07-09T11:24:18.161Z,43.60
2018-07-09T11:26:46.817Z,44.00
2018-07-09T11:29:15.252Z,43.70
2018-07-09T11:31:44.001Z,43.80
2018-07-09T11:34:12.563Z,44.10
2018-07-09T11:36:40.941Z,42.20
2018-07-09T11:39:09.450Z,42.60
2018-07-09T11:41:37.823Z,43.20
2018-07-09T11:44:06.301Z,41.20
2018-07-09T11:46:34.741Z,41.20
2018-07-09T11:49:03.190Z,38.90
2018-07-09T11:51:32.449Z,38.30
2018-07-09T11:54:00.915Z,37.60
2018-07-09T11:56:29.328Z,38.90
2018-07-09T11:58:57.868Z,40.30
2018-07-09T12:01:26.290Z,40.20
2018-07-09T12:03:54.781Z,40.10
2018-07-09T12:06:23.266Z,37.80
2018-07-09T12:11:19.958Z,38.20
2018-07-09T12:13:48.367Z,38.70
2018-07-09T12:16:16.808Z,38.10
2018-07-09T12:18:45.352Z,38.30
2018-07-09T12:21:13.974Z,38.00
2018-07-09T12:23:42.307Z,37.80
2018-07-09T12:26:10.706Z,37.40
2018-07-09T12:28:39.448Z,37.50
2018-07-09T12:31:08.003Z,38.40
2018-07-09T12:33:36.413Z,38.60
2018-07-09T12:36:06.022Z,38.80
2018-07-09T12:38:34.565Z,38.20
2018-07-09T12:41:03.001Z,39.00
2018-07-09T12:43:31.403Z,39.60
2018-07-09T12:45:59.805Z,40.10
2018-07-09T12:50:56.362Z,40.90
2018-07-09T12:53:25.354Z,40.40
2018-07-09T12:55:53.808Z,40.40
2018-07-09T12:58:22.293Z,40.40
2018-07-09T13:00:50.737Z,40.80
2018-07-09T13:03:19.154Z,40.40
2018-07-09T13:05:47.665Z,40.30
2018-07-09T13:08:16.109Z,40.90
2018-07-09T13:10:44.563Z,40.90
2018-07-09T13:13:12.981Z,41.40
2018-07-09T13:15:41.549Z,42.00
2018-07-09T13:18:09.978Z,42.30
2018-07-09T13:23:06.554Z,43.00
2018-07-09T13:25:35.000Z,43.40
2018-07-09T13:28:03.501Z,43.30
2018-07-09T13:30:31.958Z,43.60
2018-07-09T13:33:00.410Z,43.80
2018-07-09T13:35:28.909Z,43.50
2018-07-09T13:37:57.438Z,43.50
2018-07-09T13:40:25.979Z,43.40
2018-07-09T13:42:54.503Z,43.80
2018-07-09T13:45:22.894Z,44.00
2018-07-09T13:47:51.489Z,43.60
2018-07-09T13:50:19.897Z,44.30
2018-07-09T13:52:48.386Z,44.50
2018-07-09T13:55:16.834Z,44.50
2018-07-09T13:57:45.275Z,44.50
2018-07-09T14:02:41.969Z,43.60
2018-07-09T14:05:10.440Z,44.20
2018-07-09T14:07:39.008Z,44.30
2018-07-09T14:10:07.557Z,44.30
2018-07-09T14:12:35.937Z,44.60
2018-07-09T14:15:04.603Z,44.40
2018-07-09T14:17:33.017Z,45.00
2018-07-09T14:20:26.905Z,44.10
2018-07-09T14:22:55.374Z,43.80
2018-07-09T14:25:23.800Z,44.50
2018-07-09T14:27:52.221Z,45.10
2018-07-09T14:30:20.708Z,45.40
2018-07-09T14:32:49.142Z,45.90
2018-07-09T14:35:17.694Z,45.80
2018-07-09T14:37:46.136Z,45.90
2018-07-09T14:40:14.546Z,45.90
2018-07-09T14:42:42.964Z,45.90
2018-07-09T14:45:11.409Z,46.40
2018-07-09T14:47:39.889Z,45.90
2018-07-09T14:50:08.299Z,45.80
2018-07-09T14:52:36.763Z,46.70
2018-07-09T14:55:05.382Z,46.80
2018-07-09T14:57:33.789Z,46.60
2018-07-09T15:00:02.635Z,45.70
2018-07-09T15:02:31.109Z,46.60
2018-07-09T15:04:59.501Z,46.80
2018-07-09T15:09:55.999Z,45.90
2018-07-09T15:12:24.491Z,46.00
2018-07-09T15:14:52.962Z,45.50
2018-07-09T15:17:21.502Z,46.00
2018-07-09T15:19:49.953Z,46.00
2018-07-09T15:22:18.380Z,45.20
2018-07-09T15:24:46.887Z,43.50
2018-07-09T15:27:15.463Z,43.70
2018-07-09T15:29:43.941Z,43.00
2018-07-09T15:32:20.693Z,43.20
2018-07-09T15:34:49.057Z,44.10
2018-07-09T15:37:17.528Z,45.60
2018-07-09T15:39:45.973Z,45.70
2018-07-09T15:42:14.617Z,45.70
2018-07-09T15:44:43.079Z,46.70
2018-07-09T15:47:11.552Z,46.90
2018-07-09T15:49:40.579Z,47.30
2018-07-09T15:52:09.009Z,47.50
2018-07-09T15:54:37.485Z,48.30
2018-07-09T15:57:05.988Z,48.80
2018-07-09T15:59:34.442Z,48.40
2018-07-09T16:02:02.896Z,48.60
2018-07-09T16:04:31.317Z,48.20
2018-07-09T16:06:59.763Z,48.90
2018-07-09T16:11:56.309Z,48.90
2018-07-09T16:14:24.750Z,48.80
2018-07-09T16:16:53.287Z,48.80
2018-07-09T16:19:21.701Z,48.60
2018-07-09T16:21:50.116Z,49.20
2018-07-09T16:24:18.593Z,49.80
2018-07-09T16:26:46.970Z,51.20
2018-07-09T16:29:15.509Z,52.40
2018-07-09T16:31:43.884Z,52.40
2018-07-09T16:36:40.402Z,53.10
2018-07-09T16:39:08.949Z,53.20
2018-07-09T16:41:37.349Z,53.20
2018-07-09T16:44:05.773Z,54.10
2018-07-09T16:49:02.478Z,54.00
2018-07-09T16:51:31.830Z,55.40
2018-07-09T16:54:00.310Z,54.00
2018-07-09T16:56:28.818Z,53.40
2018-07-09T16:58:57.262Z,53.50
2018-07-09T17:01:25.743Z,54.00
2018-07-09T17:03:55.169Z,53.30
2018-07-09T17:06:23.982Z,52.80
2018-07-09T17:08:53.230Z,53.00
2018-07-09T17:11:21.633Z,54.30
2018-07-09T17:13:50.223Z,54.00
2018-07-09T17:16:19.235Z,53.30
2018-07-09T17:18:47.622Z,53.50
2018-07-09T17:21:16.057Z,54.00
2018-07-09T17:23:44.481Z,54.40
2018-07-09T17:26:14.193Z,55.60
2018-07-09T17:28:42.576Z,56.30
2018-07-09T17:31:11.053Z,55.90
2018-07-09T17:33:39.534Z,56.80
2018-07-09T17:36:07.998Z,57.70
2018-07-09T17:38:36.398Z,57.80
2018-07-09T17:41:04.846Z,57.30
2018-07-09T17:43:33.263Z,58.50
2018-07-09T17:46:01.768Z,58.70
2018-07-09T17:48:30.196Z,58.60
2018-07-09T17:50:58.782Z,58.70
2018-07-09T17:53:27.261Z,57.40
2018-07-09T17:55:56.546Z,57.50
2018-07-09T17:58:25.001Z,57.60
2018-07-09T18:00:53.528Z,57.90
2018-07-09T18:03:21.961Z,58.80
2018-07-09T18:05:50.398Z,58.90
2018-07-09T18:08:18.835Z,58.70
2018-07-09T18:10:47.282Z,59.60
2018-07-09T18:13:15.729Z,59.70
2018-07-09T18:15:44.905Z,59.80
2018-07-09T18:18:13.338Z,60.30
2018-07-09T18:20:41.771Z,59.30
2018-07-09T18:23:10.286Z,59.90
2018-07-09T18:25:38.697Z,59.00
2018-07-09T18:28:07.120Z,59.10
2018-07-09T18:30:35.629Z,59.20
2018-07-09T18:33:04.160Z,58.50
2018-07-09T18:35:32.745Z,58.90
2018-07-09T18:38:01.094Z,59.80
2018-07-09T18:40:29.653Z,60.60
2018-07-09T18:42:58.142Z,61.20
2018-07-09T18:45:26.525Z,60.70
2018-07-09T18:47:55.035Z,61.00
2018-07-09T18:50:23.553Z,61.60
2018-07-09T18:52:51.945Z,61.20
2018-07-09T18:55:20.365Z,60.70
2018-07-09T19:00:17.030Z,61.50
2018-07-09T19:02:45.572Z,61.50
2018-07-09T19:05:14.120Z,62.50
2018-07-09T19:07:42.655Z,62.50
2018-07-09T19:10:11.826Z,63.50
2018-07-09T19:12:40.573Z,63.50
2018-07-09T19:18:02.053Z,63.30
2018-07-09T19:20:42.017Z,64.50
2018-07-09T19:23:09.924Z,64.40
2018-07-09T19:25:37.901Z,64.20
2018-07-09T19:28:07.234Z,64.90
2018-07-09T19:30:34.826Z,65.40
2018-07-09T19:33:02.148Z,64.40
2018-07-09T19:35:29.559Z,64.80
2018-07-09T19:37:59.169Z,65.80
2018-07-09T19:40:26.322Z,65.80
2018-07-09T19:42:53.648Z,65.80
2018-07-09T19:45:20.953Z,66.00
2018-07-09T19:47:48.378Z,65.10
2018-07-09T19:50:15.673Z,65.20
2018-07-09T19:52:42.960Z,64.90
2018-07-09T19:55:10.314Z,65.20
2018-07-09T19:57:37.608Z,64.70
2018-07-09T20:00:04.926Z,64.00
2018-07-09T20:02:32.256Z,63.70
2018-07-09T20:04:59.618Z,63.60
2018-07-09T20:07:26.936Z,63.40
2018-07-09T20:09:59.494Z,63.20
2018-07-09T20:12:32.172Z,63.40
2018-07-09T20:15:04.946Z,63.20
2018-07-09T20:17:35.603Z,62.40
2018-07-09T20:20:02.986Z,62.90
2018-07-09T20:22:30.314Z,63.40
2018-07-09T20:24:57.684Z,63.00
2018-07-09T20:27:24.990Z,63.10
2018-07-09T20:29:52.295Z,62.80
2018-07-09T20:32:19.612Z,63.30
2018-07-09T20:34:46.906Z,63.60
2018-07-09T20:37:14.251Z,63.60
2018-07-09T20:39:42.168Z,63.80
2018-07-09T20:44:37.029Z,64.00
2018-07-09T20:47:04.423Z,63.70
2018-07-09T20:49:31.727Z,64.10
2018-07-09T20:51:59.074Z,64.00
2018-07-09T20:54:26.394Z,63.70
2018-07-09T20:56:53.781Z,63.20
2018-07-09T20:59:21.084Z,62.70
2018-07-09T21:01:48.585Z,62.60
2018-07-09T21:04:21.136Z,62.50
2018-07-09T21:06:48.430Z,62.50
2018-07-09T21:09:15.998Z,62.60
2018-07-09T21:11:43.413Z,62.50
2018-07-09T21:14:10.750Z,63.20
2018-07-09T21:16:38.021Z,63.10
2018-07-09T21:21:32.901Z,62.70
2018-07-09T21:24:00.241Z,61.90
2018-07-09T21:26:27.557Z,62.10
2018-07-09T21:31:22.428Z,63.20
2018-07-09T21:33:49.726Z,63.30
2018-07-09T21:36:17.079Z,63.40
2018-07-09T21:38:44.381Z,62.80
2018-07-09T21:41:12.070Z,62.70
2018-07-09T21:43:39.587Z,62.20
2018-07-09T21:46:06.846Z,62.60
2018-07-09T21:48:34.640Z,62.40
2018-07-09T21:51:01.926Z,62.30
2018-07-09T21:53:29.786Z,62.40
2018-07-09T21:55:57.122Z,60.70
2018-07-09T21:58:24.601Z,59.80
2018-07-09T22:00:51.969Z,59.60
2018-07-09T22:05:46.957Z,59.30
2018-07-09T22:08:14.338Z,58.90
2018-07-09T22:13:09.174Z,58.00
2018-07-09T22:15:36.475Z,57.50
2018-07-09T22:18:03.789Z,56.90
2018-07-09T22:20:31.103Z,57.10
2018-07-09T22:22:58.418Z,57.00
2018-07-09T22:25:25.729Z,56.80
2018-07-09T22:27:53.043Z,57.30
2018-07-09T22:30:28.845Z,57.20
2018-07-09T22:35:25.569Z,56.80
2018-07-09T22:40:22.508Z,56.50
2018-07-09T22:42:50.938Z,56.80
2018-07-09T22:45:19.385Z,56.80
2018-07-09T22:47:47.895Z,56.40
2018-07-09T22:50:16.316Z,56.70
2018-07-09T22:52:44.801Z,56.80
2018-07-09T22:55:24.380Z,56.40
2018-07-09T22:57:52.788Z,56.30
2018-07-09T23:00:21.310Z,56.30
2018-07-09T23:03:15.227Z,56.30
2018-07-09T23:05:44.179Z,57.30
2018-07-09T23:08:13.311Z,57.30
2018-07-09T23:12:55.349Z,57.30
2018-07-09T23:17:42.717Z,57.40
2018-07-09T23:20:22.500Z,57.10
2018-07-09T23:22:49.822Z,57.00
2018-07-09T23:25:17.153Z,57.30
2018-07-09T23:27:44.498Z,57.00
2018-07-09T23:30:11.780Z,57.00
2018-07-09T23:32:39.090Z,56.70
2018-07-09T23:35:06.479Z,57.30
2018-07-09T23:37:33.770Z,57.20
2018-07-09T23:40:01.079Z,57.30
2018-07-09T23:42:28.384Z,57.70
2018-07-09T23:44:55.729Z,57.80
2018-07-09T23:47:23.005Z,58.10
2018-07-09T23:49:50.317Z,58.00
2018-07-09T23:52:17.623Z,58.20
2018-07-09T23:54:44.912Z,58.30
2018-07-09T23:57:26.021Z,58.30
